sensor_id;sensor_type;location;lat;lon;timestamp;P1;durP1;ratioP1;P2;durP2;ratioP2
11439;SDS011;5776;51.814;4.510;2023-08-30T00:00:56;4.70;;;3.25;;
11439;SDS011;5776;51.814;4.510;2023-08-30T00:03:22;5.00;;;3.47;;
11439;SDS011;5776;51.814;4.510;2023-08-30T00:05:48;6.35;;;4.00;;
11439;SDS011;5776;51.814;4.510;2023-08-30T00:08:14;6.43;;;2.80;;
11439;SDS011;5776;51.814;4.510;2023-08-30T00:10:44;3.40;;;2.00;;
11439;SDS011;5776;51.814;4.510;2023-08-30T00:13:13;4.63;;;3.07;;
11439;SDS011;5776;51.814;4.510;2023-08-30T00:15:39;5.95;;;3.70;;
11439;SDS011;5776;51.814;4.510;2023-08-30T00:18:04;5.97;;;3.93;;
11439;SDS011;5776;51.814;4.510;2023-08-30T00:20:31;7.03;;;4.10;;
11439;SDS011;5776;51.814;4.510;2023-08-30T00:22:57;6.07;;;4.45;;
11439;SDS011;5776;51.814;4.510;2023-08-30T00:25:23;6.93;;;4.78;;
11439;SDS011;5776;51.814;4.510;2023-08-30T00:27:49;6.30;;;4.20;;
11439;SDS011;5776;51.814;4.510;2023-08-30T00:30:15;9.30;;;4.95;;
11439;SDS011;5776;51.814;4.510;2023-08-30T00:32:40;6.43;;;4.53;;
11439;SDS011;5776;51.814;4.510;2023-08-30T00:35:07;7.45;;;4.78;;
11439;SDS011;5776;51.814;4.510;2023-08-30T00:37:33;7.10;;;4.53;;
11439;SDS011;5776;51.814;4.510;2023-08-30T00:39:58;8.10;;;5.07;;
11439;SDS011;5776;51.814;4.510;2023-08-30T00:42:25;7.28;;;4.70;;
11439;SDS011;5776;51.814;4.510;2023-08-30T00:44:51;6.10;;;3.40;;
11439;SDS011;5776;51.814;4.510;2023-08-30T00:47:17;3.60;;;2.35;;
11439;SDS011;5776;51.814;4.510;2023-08-30T00:49:43;5.10;;;3.03;;
11439;SDS011;5776;51.814;4.510;2023-08-30T00:52:09;7.43;;;4.50;;
11439;SDS011;5776;51.814;4.510;2023-08-30T00:54:36;7.15;;;4.03;;
11439;SDS011;5776;51.814;4.510;2023-08-30T00:57:03;8.63;;;5.28;;
11439;SDS011;5776;51.814;4.510;2023-08-30T00:59:30;8.17;;;5.07;;
11439;SDS011;5776;51.814;4.510;2023-08-30T01:01:58;4.20;;;2.53;;
11439;SDS011;5776;51.814;4.510;2023-08-30T01:04:25;7.38;;;4.95;;
11439;SDS011;5776;51.814;4.510;2023-08-30T01:06:55;7.87;;;4.90;;
11439;SDS011;5776;51.814;4.510;2023-08-30T01:09:22;5.87;;;3.53;;
11439;SDS011;5776;51.814;4.510;2023-08-30T01:11:57;7.05;;;4.80;;
11439;SDS011;5776;51.814;4.510;2023-08-30T01:17:14;3.67;;;2.63;;
11439;SDS011;5776;51.814;4.510;2023-08-30T01:19:57;7.43;;;5.05;;
11439;SDS011;5776;51.814;4.510;2023-08-30T01:22:38;9.60;;;5.00;;
11439;SDS011;5776;51.814;4.510;2023-08-30T01:28:08;6.78;;;4.43;;
11439;SDS011;5776;51.814;4.510;2023-08-30T01:30:36;9.27;;;5.30;;
11439;SDS011;5776;51.814;4.510;2023-08-30T01:33:05;8.73;;;5.03;;
11439;SDS011;5776;51.814;4.510;2023-08-30T01:35:33;8.75;;;4.50;;
11439;SDS011;5776;51.814;4.510;2023-08-30T01:38:05;9.52;;;4.70;;
11439;SDS011;5776;51.814;4.510;2023-08-30T01:40:35;8.48;;;4.78;;
11439;SDS011;5776;51.814;4.510;2023-08-30T01:43:03;6.67;;;4.00;;
11439;SDS011;5776;51.814;4.510;2023-08-30T01:45:32;4.23;;;2.97;;
11439;SDS011;5776;51.814;4.510;2023-08-30T01:48:00;7.47;;;4.60;;
11439;SDS011;5776;51.814;4.510;2023-08-30T01:50:27;8.32;;;5.25;;
11439;SDS011;5776;51.814;4.510;2023-08-30T01:52:53;8.48;;;4.70;;
11439;SDS011;5776;51.814;4.510;2023-08-30T01:55:20;9.30;;;4.72;;
11439;SDS011;5776;51.814;4.510;2023-08-30T01:57:48;6.53;;;3.85;;
11439;SDS011;5776;51.814;4.510;2023-08-30T02:00:14;8.82;;;4.72;;
11439;SDS011;5776;51.814;4.510;2023-08-30T02:02:39;7.07;;;4.13;;
11439;SDS011;5776;51.814;4.510;2023-08-30T02:05:08;6.50;;;3.72;;
11439;SDS011;5776;51.814;4.510;2023-08-30T02:10:17;4.82;;;3.15;;
11439;SDS011;5776;51.814;4.510;2023-08-30T02:12:48;6.22;;;3.75;;
11439;SDS011;5776;51.814;4.510;2023-08-30T02:15:16;5.80;;;3.50;;
11439;SDS011;5776;51.814;4.510;2023-08-30T02:17:44;4.57;;;3.05;;
11439;SDS011;5776;51.814;4.510;2023-08-30T02:20:10;4.40;;;2.87;;
11439;SDS011;5776;51.814;4.510;2023-08-30T02:22:37;5.83;;;4.10;;
11439;SDS011;5776;51.814;4.510;2023-08-30T02:25:03;4.27;;;2.87;;
11439;SDS011;5776;51.814;4.510;2023-08-30T02:27:33;7.78;;;3.80;;
11439;SDS011;5776;51.814;4.510;2023-08-30T02:29:59;7.00;;;4.10;;
11439;SDS011;5776;51.814;4.510;2023-08-30T02:32:25;6.63;;;4.25;;
11439;SDS011;5776;51.814;4.510;2023-08-30T02:34:52;8.93;;;5.15;;
11439;SDS011;5776;51.814;4.510;2023-08-30T02:37:18;5.35;;;3.20;;
11439;SDS011;5776;51.814;4.510;2023-08-30T02:39:44;7.27;;;4.97;;
11439;SDS011;5776;51.814;4.510;2023-08-30T02:42:10;5.20;;;3.03;;
11439;SDS011;5776;51.814;4.510;2023-08-30T02:44:36;6.03;;;3.63;;
11439;SDS011;5776;51.814;4.510;2023-08-30T02:47:01;5.90;;;4.20;;
11439;SDS011;5776;51.814;4.510;2023-08-30T02:49:27;8.23;;;4.43;;
11439;SDS011;5776;51.814;4.510;2023-08-30T02:51:53;3.27;;;2.47;;
11439;SDS011;5776;51.814;4.510;2023-08-30T02:54:19;9.07;;;4.60;;
11439;SDS011;5776;51.814;4.510;2023-08-30T02:56:45;6.10;;;3.37;;
11439;SDS011;5776;51.814;4.510;2023-08-30T02:59:11;5.77;;;3.13;;
11439;SDS011;5776;51.814;4.510;2023-08-30T03:01:37;6.47;;;3.40;;
11439;SDS011;5776;51.814;4.510;2023-08-30T03:04:06;6.53;;;3.97;;
11439;SDS011;5776;51.814;4.510;2023-08-30T03:06:33;4.17;;;2.80;;
11439;SDS011;5776;51.814;4.510;2023-08-30T03:09:00;6.00;;;3.67;;
11439;SDS011;5776;51.814;4.510;2023-08-30T03:11:26;4.47;;;3.10;;
11439;SDS011;5776;51.814;4.510;2023-08-30T03:13:55;5.63;;;4.13;;
11439;SDS011;5776;51.814;4.510;2023-08-30T03:16:21;7.60;;;4.47;;
11439;SDS011;5776;51.814;4.510;2023-08-30T03:18:47;5.67;;;3.57;;
11439;SDS011;5776;51.814;4.510;2023-08-30T03:21:13;5.82;;;3.30;;
11439;SDS011;5776;51.814;4.510;2023-08-30T03:23:39;8.17;;;4.70;;
11439;SDS011;5776;51.814;4.510;2023-08-30T03:26:10;10.48;;;5.40;;
11439;SDS011;5776;51.814;4.510;2023-08-30T03:28:37;7.63;;;4.60;;
11439;SDS011;5776;51.814;4.510;2023-08-30T03:33:39;7.07;;;4.13;;
11439;SDS011;5776;51.814;4.510;2023-08-30T03:36:09;5.57;;;3.20;;
11439;SDS011;5776;51.814;4.510;2023-08-30T03:38:35;5.60;;;3.73;;
11439;SDS011;5776;51.814;4.510;2023-08-30T03:41:02;7.33;;;4.90;;
11439;SDS011;5776;51.814;4.510;2023-08-30T03:43:28;6.88;;;4.35;;
11439;SDS011;5776;51.814;4.510;2023-08-30T03:45:54;9.65;;;5.22;;
11439;SDS011;5776;51.814;4.510;2023-08-30T03:48:20;6.78;;;4.78;;
11439;SDS011;5776;51.814;4.510;2023-08-30T03:50:46;10.50;;;5.53;;
11439;SDS011;5776;51.814;4.510;2023-08-30T03:53:12;13.53;;;5.33;;
11439;SDS011;5776;51.814;4.510;2023-08-30T03:55:38;9.43;;;4.07;;
11439;SDS011;5776;51.814;4.510;2023-08-30T03:58:04;8.35;;;4.70;;
11439;SDS011;5776;51.814;4.510;2023-08-30T04:00:29;7.60;;;4.90;;
11439;SDS011;5776;51.814;4.510;2023-08-30T04:02:55;4.40;;;2.90;;
11439;SDS011;5776;51.814;4.510;2023-08-30T04:05:21;6.22;;;3.22;;
11439;SDS011;5776;51.814;4.510;2023-08-30T04:07:47;7.50;;;3.80;;
11439;SDS011;5776;51.814;4.510;2023-08-30T04:10:13;7.37;;;4.30;;
11439;SDS011;5776;51.814;4.510;2023-08-30T04:12:39;8.57;;;5.10;;
11439;SDS011;5776;51.814;4.510;2023-08-30T04:15:05;7.50;;;4.00;;
11439;SDS011;5776;51.814;4.510;2023-08-30T04:17:31;4.57;;;3.30;;
11439;SDS011;5776;51.814;4.510;2023-08-30T04:19:58;5.93;;;3.50;;
11439;SDS011;5776;51.814;4.510;2023-08-30T04:22:27;8.40;;;5.07;;
11439;SDS011;5776;51.814;4.510;2023-08-30T04:24:52;8.20;;;5.80;;
11439;SDS011;5776;51.814;4.510;2023-08-30T04:27:18;8.07;;;5.00;;
11439;SDS011;5776;51.814;4.510;2023-08-30T04:29:44;10.67;;;5.77;;
11439;SDS011;5776;51.814;4.510;2023-08-30T04:32:10;5.70;;;4.20;;
11439;SDS011;5776;51.814;4.510;2023-08-30T04:34:37;9.87;;;5.43;;
11439;SDS011;5776;51.814;4.510;2023-08-30T04:37:03;6.23;;;3.70;;
11439;SDS011;5776;51.814;4.510;2023-08-30T04:39:29;9.87;;;5.17;;
11439;SDS011;5776;51.814;4.510;2023-08-30T04:41:55;8.50;;;5.27;;
11439;SDS011;5776;51.814;4.510;2023-08-30T04:44:22;6.90;;;4.93;;
11439;SDS011;5776;51.814;4.510;2023-08-30T04:46:50;8.43;;;5.37;;
11439;SDS011;5776;51.814;4.510;2023-08-30T04:49:17;8.27;;;4.77;;
11439;SDS011;5776;51.814;4.510;2023-08-30T04:51:43;8.27;;;5.20;;
11439;SDS011;5776;51.814;4.510;2023-08-30T04:54:09;9.70;;;5.37;;
11439;SDS011;5776;51.814;4.510;2023-08-30T04:56:35;11.27;;;6.03;;
11439;SDS011;5776;51.814;4.510;2023-08-30T04:59:01;11.10;;;6.13;;
11439;SDS011;5776;51.814;4.510;2023-08-30T05:01:29;8.83;;;5.63;;
11439;SDS011;5776;51.814;4.510;2023-08-30T05:03:55;8.40;;;5.20;;
11439;SDS011;5776;51.814;4.510;2023-08-30T05:06:21;9.33;;;5.43;;
11439;SDS011;5776;51.814;4.510;2023-08-30T05:08:47;7.73;;;5.40;;
11439;SDS011;5776;51.814;4.510;2023-08-30T05:11:14;11.03;;;5.30;;
11439;SDS011;5776;51.814;4.510;2023-08-30T05:13:41;8.63;;;5.30;;
11439;SDS011;5776;51.814;4.510;2023-08-30T05:16:07;10.70;;;5.20;;
11439;SDS011;5776;51.814;4.510;2023-08-30T05:18:33;6.07;;;4.27;;
11439;SDS011;5776;51.814;4.510;2023-08-30T05:20:59;6.73;;;4.47;;
11439;SDS011;5776;51.814;4.510;2023-08-30T05:23:24;6.97;;;4.30;;
11439;SDS011;5776;51.814;4.510;2023-08-30T05:25:50;5.20;;;4.03;;
11439;SDS011;5776;51.814;4.510;2023-08-30T05:28:16;4.40;;;2.70;;
11439;SDS011;5776;51.814;4.510;2023-08-30T05:30:42;8.07;;;4.03;;
11439;SDS011;5776;51.814;4.510;2023-08-30T05:33:09;8.40;;;5.40;;
11439;SDS011;5776;51.814;4.510;2023-08-30T05:35:35;7.53;;;4.77;;
11439;SDS011;5776;51.814;4.510;2023-08-30T05:38:01;4.20;;;2.67;;
11439;SDS011;5776;51.814;4.510;2023-08-30T05:40:27;8.05;;;3.35;;
11439;SDS011;5776;51.814;4.510;2023-08-30T05:42:53;4.87;;;3.43;;
11439;SDS011;5776;51.814;4.510;2023-08-30T05:45:20;6.07;;;3.20;;
11439;SDS011;5776;51.814;4.510;2023-08-30T05:47:46;5.27;;;3.33;;
11439;SDS011;5776;51.814;4.510;2023-08-30T05:50:13;6.93;;;3.43;;
11439;SDS011;5776;51.814;4.510;2023-08-30T05:52:39;5.00;;;3.03;;
11439;SDS011;5776;51.814;4.510;2023-08-30T05:55:07;6.37;;;4.13;;
11439;SDS011;5776;51.814;4.510;2023-08-30T05:57:33;8.73;;;4.37;;
11439;SDS011;5776;51.814;4.510;2023-08-30T06:00:00;5.53;;;3.40;;
11439;SDS011;5776;51.814;4.510;2023-08-30T06:02:26;7.38;;;4.15;;
11439;SDS011;5776;51.814;4.510;2023-08-30T06:04:52;6.53;;;4.67;;
11439;SDS011;5776;51.814;4.510;2023-08-30T06:07:18;8.63;;;5.20;;
11439;SDS011;5776;51.814;4.510;2023-08-30T06:09:44;9.20;;;5.20;;
11439;SDS011;5776;51.814;4.510;2023-08-30T06:12:10;12.40;;;5.50;;
11439;SDS011;5776;51.814;4.510;2023-08-30T06:14:36;11.27;;;5.80;;
11439;SDS011;5776;51.814;4.510;2023-08-30T06:17:03;7.63;;;5.27;;
11439;SDS011;5776;51.814;4.510;2023-08-30T06:19:29;5.80;;;4.30;;
11439;SDS011;5776;51.814;4.510;2023-08-30T06:21:55;11.97;;;4.93;;
11439;SDS011;5776;51.814;4.510;2023-08-30T06:24:21;9.23;;;5.13;;
11439;SDS011;5776;51.814;4.510;2023-08-30T06:26:47;8.18;;;4.60;;
11439;SDS011;5776;51.814;4.510;2023-08-30T06:29:13;10.43;;;5.03;;
11439;SDS011;5776;51.814;4.510;2023-08-30T06:31:39;12.70;;;4.57;;
11439;SDS011;5776;51.814;4.510;2023-08-30T06:34:07;6.43;;;3.33;;
11439;SDS011;5776;51.814;4.510;2023-08-30T06:36:33;6.28;;;3.70;;
11439;SDS011;5776;51.814;4.510;2023-08-30T06:39:00;5.37;;;3.30;;
11439;SDS011;5776;51.814;4.510;2023-08-30T06:41:26;9.43;;;3.92;;
11439;SDS011;5776;51.814;4.510;2023-08-30T06:43:52;4.95;;;3.25;;
11439;SDS011;5776;51.814;4.510;2023-08-30T06:46:18;4.35;;;2.83;;
11439;SDS011;5776;51.814;4.510;2023-08-30T06:48:46;7.67;;;3.27;;
11439;SDS011;5776;51.814;4.510;2023-08-30T06:51:11;6.77;;;3.00;;
11439;SDS011;5776;51.814;4.510;2023-08-30T06:53:37;3.97;;;2.47;;
11439;SDS011;5776;51.814;4.510;2023-08-30T06:56:03;5.00;;;2.70;;
11439;SDS011;5776;51.814;4.510;2023-08-30T06:58:29;2.63;;;1.50;;
11439;SDS011;5776;51.814;4.510;2023-08-30T07:00:56;4.27;;;2.60;;
11439;SDS011;5776;51.814;4.510;2023-08-30T07:03:22;3.92;;;2.63;;
11439;SDS011;5776;51.814;4.510;2023-08-30T07:05:50;5.17;;;2.50;;
11439;SDS011;5776;51.814;4.510;2023-08-30T07:08:18;4.60;;;1.97;;
11439;SDS011;5776;51.814;4.510;2023-08-30T07:10:44;4.20;;;2.83;;
11439;SDS011;5776;51.814;4.510;2023-08-30T07:13:10;3.38;;;2.53;;
11439;SDS011;5776;51.814;4.510;2023-08-30T07:15:40;4.67;;;2.70;;
11439;SDS011;5776;51.814;4.510;2023-08-30T07:18:08;3.75;;;2.10;;
11439;SDS011;5776;51.814;4.510;2023-08-30T07:20:34;3.90;;;1.63;;
11439;SDS011;5776;51.814;4.510;2023-08-30T07:23:02;3.67;;;2.70;;
11439;SDS011;5776;51.814;4.510;2023-08-30T07:25:31;3.63;;;2.60;;
11439;SDS011;5776;51.814;4.510;2023-08-30T07:28:01;4.63;;;2.73;;
11439;SDS011;5776;51.814;4.510;2023-08-30T07:30:27;3.45;;;2.80;;
11439;SDS011;5776;51.814;4.510;2023-08-30T07:32:54;2.15;;;1.63;;
11439;SDS011;5776;51.814;4.510;2023-08-30T07:35:19;5.07;;;2.78;;
11439;SDS011;5776;51.814;4.510;2023-08-30T07:37:45;4.45;;;2.75;;
11439;SDS011;5776;51.814;4.510;2023-08-30T07:40:11;3.55;;;2.72;;
11439;SDS011;5776;51.814;4.510;2023-08-30T07:42:37;3.60;;;2.97;;
11439;SDS011;5776;51.814;4.510;2023-08-30T07:45:03;4.78;;;3.50;;
11439;SDS011;5776;51.814;4.510;2023-08-30T07:47:31;6.27;;;3.47;;
11439;SDS011;5776;51.814;4.510;2023-08-30T07:49:57;4.60;;;3.30;;
11439;SDS011;5776;51.814;4.510;2023-08-30T07:52:22;3.60;;;3.17;;
11439;SDS011;5776;51.814;4.510;2023-08-30T07:54:48;6.13;;;3.40;;
11439;SDS011;5776;51.814;4.510;2023-08-30T07:57:13;4.53;;;3.63;;
11439;SDS011;5776;51.814;4.510;2023-08-30T07:59:38;5.13;;;3.20;;
11439;SDS011;5776;51.814;4.510;2023-08-30T08:02:04;5.53;;;3.60;;
11439;SDS011;5776;51.814;4.510;2023-08-30T08:04:32;6.47;;;3.90;;
11439;SDS011;5776;51.814;4.510;2023-08-30T08:06:58;5.55;;;3.70;;
11439;SDS011;5776;51.814;4.510;2023-08-30T08:09:24;5.78;;;4.43;;
11439;SDS011;5776;51.814;4.510;2023-08-30T08:11:50;6.70;;;3.83;;
11439;SDS011;5776;51.814;4.510;2023-08-30T08:14:16;5.83;;;4.70;;
11439;SDS011;5776;51.814;4.510;2023-08-30T08:16:42;5.67;;;4.20;;
11439;SDS011;5776;51.814;4.510;2023-08-30T08:19:08;5.73;;;4.13;;
11439;SDS011;5776;51.814;4.510;2023-08-30T08:21:33;4.00;;;3.40;;
11439;SDS011;5776;51.814;4.510;2023-08-30T08:24:00;4.63;;;3.70;;
11439;SDS011;5776;51.814;4.510;2023-08-30T08:26:26;3.67;;;2.90;;
11439;SDS011;5776;51.814;4.510;2023-08-30T08:28:51;2.70;;;2.30;;
11439;SDS011;5776;51.814;4.510;2023-08-30T08:31:20;2.88;;;2.10;;
11439;SDS011;5776;51.814;4.510;2023-08-30T08:33:45;4.23;;;1.73;;
11439;SDS011;5776;51.814;4.510;2023-08-30T08:36:11;4.70;;;2.03;;
11439;SDS011;5776;51.814;4.510;2023-08-30T08:38:36;1.45;;;1.20;;
11439;SDS011;5776;51.814;4.510;2023-08-30T08:41:06;2.50;;;1.43;;
11439;SDS011;5776;51.814;4.510;2023-08-30T08:43:35;1.97;;;1.63;;
11439;SDS011;5776;51.814;4.510;2023-08-30T08:46:02;1.80;;;1.48;;
11439;SDS011;5776;51.814;4.510;2023-08-30T08:48:29;3.42;;;2.00;;
11439;SDS011;5776;51.814;4.510;2023-08-30T08:50:59;3.13;;;2.00;;
11439;SDS011;5776;51.814;4.510;2023-08-30T08:53:25;3.47;;;1.97;;
11439;SDS011;5776;51.814;4.510;2023-08-30T08:55:52;3.13;;;1.67;;
11439;SDS011;5776;51.814;4.510;2023-08-30T08:58:20;6.78;;;2.28;;
11439;SDS011;5776;51.814;4.510;2023-08-30T09:00:45;3.85;;;1.80;;
11439;SDS011;5776;51.814;4.510;2023-08-30T09:03:12;3.22;;;1.52;;
11439;SDS011;5776;51.814;4.510;2023-08-30T09:05:38;3.33;;;1.70;;
11439;SDS011;5776;51.814;4.510;2023-08-30T09:08:06;3.00;;;1.60;;
11439;SDS011;5776;51.814;4.510;2023-08-30T09:10:32;4.03;;;1.65;;
11439;SDS011;5776;51.814;4.510;2023-08-30T09:12:59;3.67;;;2.00;;
11439;SDS011;5776;51.814;4.510;2023-08-30T09:15:31;2.35;;;1.80;;
11439;SDS011;5776;51.814;4.510;2023-08-30T09:17:57;3.75;;;1.67;;
11439;SDS011;5776;51.814;4.510;2023-08-30T09:20:23;3.03;;;1.63;;
11439;SDS011;5776;51.814;4.510;2023-08-30T09:22:49;4.20;;;1.73;;
11439;SDS011;5776;51.814;4.510;2023-08-30T09:25:26;5.55;;;2.00;;
11439;SDS011;5776;51.814;4.510;2023-08-30T09:28:02;3.00;;;1.52;;
11439;SDS011;5776;51.814;4.510;2023-08-30T09:30:28;3.70;;;1.88;;
11439;SDS011;5776;51.814;4.510;2023-08-30T09:33:00;6.28;;;2.00;;
11439;SDS011;5776;51.814;4.510;2023-08-30T09:35:27;6.47;;;1.90;;
11439;SDS011;5776;51.814;4.510;2023-08-30T09:37:53;9.87;;;2.80;;
11439;SDS011;5776;51.814;4.510;2023-08-30T09:40:19;7.75;;;2.58;;
11439;SDS011;5776;51.814;4.510;2023-08-30T09:42:45;4.70;;;2.10;;
11439;SDS011;5776;51.814;4.510;2023-08-30T09:45:18;4.30;;;1.92;;
11439;SDS011;5776;51.814;4.510;2023-08-30T09:47:50;8.63;;;2.53;;
11439;SDS011;5776;51.814;4.510;2023-08-30T09:50:19;6.10;;;2.20;;
11439;SDS011;5776;51.814;4.510;2023-08-30T09:52:46;5.47;;;2.42;;
11439;SDS011;5776;51.814;4.510;2023-08-30T09:55:14;6.10;;;2.10;;
11439;SDS011;5776;51.814;4.510;2023-08-30T09:57:44;7.93;;;2.40;;
11439;SDS011;5776;51.814;4.510;2023-08-30T10:00:10;5.47;;;2.47;;
11439;SDS011;5776;51.814;4.510;2023-08-30T10:02:41;8.23;;;2.60;;
11439;SDS011;5776;51.814;4.510;2023-08-30T10:05:12;3.63;;;1.87;;
11439;SDS011;5776;51.814;4.510;2023-08-30T10:07:39;5.47;;;2.20;;
11439;SDS011;5776;51.814;4.510;2023-08-30T10:10:04;6.70;;;1.87;;
11439;SDS011;5776;51.814;4.510;2023-08-30T10:12:34;10.63;;;2.47;;
11439;SDS011;5776;51.814;4.510;2023-08-30T10:15:00;7.72;;;2.55;;
11439;SDS011;5776;51.814;4.510;2023-08-30T10:17:27;5.37;;;2.00;;
11439;SDS011;5776;51.814;4.510;2023-08-30T10:19:55;6.53;;;1.83;;
11439;SDS011;5776;51.814;4.510;2023-08-30T10:22:23;7.40;;;2.20;;
11439;SDS011;5776;51.814;4.510;2023-08-30T10:27:22;8.27;;;1.95;;
11439;SDS011;5776;51.814;4.510;2023-08-30T10:29:50;4.90;;;2.00;;
11439;SDS011;5776;51.814;4.510;2023-08-30T10:32:20;7.03;;;1.90;;
11439;SDS011;5776;51.814;4.510;2023-08-30T10:34:48;7.57;;;2.00;;
11439;SDS011;5776;51.814;4.510;2023-08-30T10:37:15;14.52;;;2.58;;
11439;SDS011;5776;51.814;4.510;2023-08-30T10:39:42;9.40;;;2.97;;
11439;SDS011;5776;51.814;4.510;2023-08-30T10:42:13;7.03;;;1.90;;
11439;SDS011;5776;51.814;4.510;2023-08-30T10:44:47;4.97;;;1.92;;
11439;SDS011;5776;51.814;4.510;2023-08-30T10:47:33;7.63;;;2.00;;
11439;SDS011;5776;51.814;4.510;2023-08-30T10:50:07;5.87;;;1.90;;
11439;SDS011;5776;51.814;4.510;2023-08-30T10:52:34;8.25;;;1.80;;
11439;SDS011;5776;51.814;4.510;2023-08-30T10:55:08;3.35;;;1.48;;
11439;SDS011;5776;51.814;4.510;2023-08-30T10:57:41;5.97;;;1.75;;
11439;SDS011;5776;51.814;4.510;2023-08-30T11:02:46;7.85;;;1.63;;
11439;SDS011;5776;51.814;4.510;2023-08-30T11:05:18;9.57;;;1.42;;
11439;SDS011;5776;51.814;4.510;2023-08-30T11:07:46;4.60;;;1.55;;
11439;SDS011;5776;51.814;4.510;2023-08-30T11:10:12;10.83;;;1.93;;
11439;SDS011;5776;51.814;4.510;2023-08-30T11:12:41;3.42;;;1.30;;
11439;SDS011;5776;51.814;4.510;2023-08-30T11:15:07;6.72;;;1.60;;
11439;SDS011;5776;51.814;4.510;2023-08-30T11:17:35;7.35;;;1.80;;
11439;SDS011;5776;51.814;4.510;2023-08-30T11:20:08;6.03;;;1.58;;
11439;SDS011;5776;51.814;4.510;2023-08-30T11:22:43;4.22;;;1.30;;
11439;SDS011;5776;51.814;4.510;2023-08-30T11:25:11;5.75;;;1.20;;
11439;SDS011;5776;51.814;4.510;2023-08-30T11:27:38;6.28;;;1.30;;
11439;SDS011;5776;51.814;4.510;2023-08-30T11:30:05;6.15;;;1.52;;
11439;SDS011;5776;51.814;4.510;2023-08-30T11:32:32;7.95;;;1.65;;
11439;SDS011;5776;51.814;4.510;2023-08-30T11:34:59;6.45;;;1.45;;
11439;SDS011;5776;51.814;4.510;2023-08-30T11:37:26;8.07;;;1.48;;
11439;SDS011;5776;51.814;4.510;2023-08-30T11:39:52;3.67;;;1.30;;
11439;SDS011;5776;51.814;4.510;2023-08-30T11:42:18;4.10;;;1.40;;
11439;SDS011;5776;51.814;4.510;2023-08-30T11:44:45;7.95;;;1.50;;
11439;SDS011;5776;51.814;4.510;2023-08-30T11:47:11;8.77;;;1.73;;
11439;SDS011;5776;51.814;4.510;2023-08-30T11:49:37;5.85;;;1.33;;
11439;SDS011;5776;51.814;4.510;2023-08-30T11:52:05;6.88;;;1.73;;
11439;SDS011;5776;51.814;4.510;2023-08-30T11:54:31;5.80;;;1.38;;
11439;SDS011;5776;51.814;4.510;2023-08-30T11:56:57;7.40;;;1.70;;
11439;SDS011;5776;51.814;4.510;2023-08-30T11:59:23;3.90;;;1.20;;
11439;SDS011;5776;51.814;4.510;2023-08-30T12:01:49;5.65;;;1.70;;
11439;SDS011;5776;51.814;4.510;2023-08-30T12:04:19;5.68;;;1.60;;
11439;SDS011;5776;51.814;4.510;2023-08-30T12:06:53;11.07;;;1.85;;
11439;SDS011;5776;51.814;4.510;2023-08-30T12:09:19;9.15;;;1.52;;
11439;SDS011;5776;51.814;4.510;2023-08-30T12:11:48;8.05;;;1.70;;
11439;SDS011;5776;51.814;4.510;2023-08-30T12:14:14;7.50;;;1.77;;
11439;SDS011;5776;51.814;4.510;2023-08-30T12:16:41;4.38;;;1.30;;
11439;SDS011;5776;51.814;4.510;2023-08-30T12:19:07;2.63;;;1.20;;
11439;SDS011;5776;51.814;4.510;2023-08-30T12:21:43;4.65;;;1.27;;
11439;SDS011;5776;51.814;4.510;2023-08-30T12:24:12;5.50;;;1.00;;
11439;SDS011;5776;51.814;4.510;2023-08-30T12:26:38;8.10;;;1.27;;
11439;SDS011;5776;51.814;4.510;2023-08-30T12:29:04;7.93;;;1.75;;
11439;SDS011;5776;51.814;4.510;2023-08-30T12:31:32;8.63;;;1.45;;
11439;SDS011;5776;51.814;4.510;2023-08-30T12:33:58;2.70;;;0.98;;
11439;SDS011;5776;51.814;4.510;2023-08-30T12:36:24;6.25;;;1.60;;
11439;SDS011;5776;51.814;4.510;2023-08-30T12:38:50;9.00;;;1.27;;
11439;SDS011;5776;51.814;4.510;2023-08-30T12:41:17;3.40;;;1.05;;
11439;SDS011;5776;51.814;4.510;2023-08-30T12:43:44;3.60;;;1.13;;
11439;SDS011;5776;51.814;4.510;2023-08-30T12:46:10;3.60;;;1.20;;
11439;SDS011;5776;51.814;4.510;2023-08-30T12:48:36;5.40;;;1.33;;
11439;SDS011;5776;51.814;4.510;2023-08-30T12:51:01;6.68;;;1.35;;
11439;SDS011;5776;51.814;4.510;2023-08-30T12:53:29;6.28;;;1.10;;
11439;SDS011;5776;51.814;4.510;2023-08-30T12:55:54;4.25;;;1.45;;
11439;SDS011;5776;51.814;4.510;2023-08-30T12:58:20;7.47;;;1.30;;
11439;SDS011;5776;51.814;4.510;2023-08-30T13:00:46;5.45;;;1.55;;
11439;SDS011;5776;51.814;4.510;2023-08-30T13:03:12;3.03;;;0.93;;
11439;SDS011;5776;51.814;4.510;2023-08-30T13:05:39;2.90;;;0.98;;
11439;SDS011;5776;51.814;4.510;2023-08-30T13:08:05;2.65;;;1.00;;
11439;SDS011;5776;51.814;4.510;2023-08-30T13:10:31;4.53;;;1.35;;
11439;SDS011;5776;51.814;4.510;2023-08-30T13:38:50;5.70;;;1.48;;
11439;SDS011;5776;51.814;4.510;2023-08-30T13:41:16;5.72;;;1.15;;
11439;SDS011;5776;51.814;4.510;2023-08-30T13:43:42;4.68;;;1.27;;
11439;SDS011;5776;51.814;4.510;2023-08-30T13:46:09;4.05;;;1.10;;
11439;SDS011;5776;51.814;4.510;2023-08-30T13:48:36;3.92;;;1.20;;
11439;SDS011;5776;51.814;4.510;2023-08-30T13:51:02;4.05;;;1.08;;
11439;SDS011;5776;51.814;4.510;2023-08-30T13:53:28;3.83;;;0.95;;
11439;SDS011;5776;51.814;4.510;2023-08-30T13:55:54;5.13;;;1.20;;
11439;SDS011;5776;51.814;4.510;2023-08-30T13:58:20;3.53;;;1.10;;
11439;SDS011;5776;51.814;4.510;2023-08-30T14:00:46;4.72;;;0.93;;
11439;SDS011;5776;51.814;4.510;2023-08-30T14:03:12;3.75;;;1.15;;
11439;SDS011;5776;51.814;4.510;2023-08-30T14:05:37;3.70;;;0.82;;
11439;SDS011;5776;51.814;4.510;2023-08-30T14:08:06;3.72;;;1.23;;
11439;SDS011;5776;51.814;4.510;2023-08-30T14:10:32;5.03;;;0.90;;
11439;SDS011;5776;51.814;4.510;2023-08-30T14:12:58;2.58;;;0.75;;
11439;SDS011;5776;51.814;4.510;2023-08-30T14:15:24;3.60;;;0.82;;
11439;SDS011;5776;51.814;4.510;2023-08-30T14:17:50;4.15;;;1.08;;
11439;SDS011;5776;51.814;4.510;2023-08-30T14:20:16;4.00;;;0.95;;
11439;SDS011;5776;51.814;4.510;2023-08-30T14:22:41;2.13;;;0.60;;
11439;SDS011;5776;51.814;4.510;2023-08-30T14:25:08;3.03;;;0.93;;
11439;SDS011;5776;51.814;4.510;2023-08-30T14:27:34;4.65;;;1.00;;
11439;SDS011;5776;51.814;4.510;2023-08-30T14:30:00;1.33;;;0.52;;
11439;SDS011;5776;51.814;4.510;2023-08-30T14:32:26;4.22;;;0.77;;
11439;SDS011;5776;51.814;4.510;2023-08-30T14:34:52;6.13;;;1.40;;
11439;SDS011;5776;51.814;4.510;2023-08-30T14:37:18;4.47;;;0.70;;
11439;SDS011;5776;51.814;4.510;2023-08-30T14:39:44;1.67;;;0.88;;
11439;SDS011;5776;51.814;4.510;2023-08-30T14:42:12;5.00;;;0.85;;
11439;SDS011;5776;51.814;4.510;2023-08-30T14:44:37;4.25;;;1.40;;
11439;SDS011;5776;51.814;4.510;2023-08-30T14:47:03;8.25;;;1.08;;
11439;SDS011;5776;51.814;4.510;2023-08-30T14:49:30;5.43;;;1.05;;
11439;SDS011;5776;51.814;4.510;2023-08-30T14:52:01;4.10;;;1.17;;
11439;SDS011;5776;51.814;4.510;2023-08-30T14:54:28;7.05;;;1.52;;
11439;SDS011;5776;51.814;4.510;2023-08-30T14:56:55;5.90;;;0.90;;
11439;SDS011;5776;51.814;4.510;2023-08-30T14:59:21;4.43;;;0.90;;
11439;SDS011;5776;51.814;4.510;2023-08-30T15:01:47;2.22;;;0.68;;
11439;SDS011;5776;51.814;4.510;2023-08-30T15:04:13;3.22;;;0.82;;
11439;SDS011;5776;51.814;4.510;2023-08-30T15:06:39;4.15;;;1.38;;
11439;SDS011;5776;51.814;4.510;2023-08-30T15:09:05;3.35;;;0.90;;
11439;SDS011;5776;51.814;4.510;2023-08-30T15:11:31;7.68;;;1.00;;
11439;SDS011;5776;51.814;4.510;2023-08-30T15:13:57;5.47;;;0.82;;
11439;SDS011;5776;51.814;4.510;2023-08-30T15:16:23;4.15;;;1.08;;
11439;SDS011;5776;51.814;4.510;2023-08-30T15:18:51;5.30;;;1.00;;
11439;SDS011;5776;51.814;4.510;2023-08-30T15:21:17;3.05;;;0.80;;
11439;SDS011;5776;51.814;4.510;2023-08-30T15:23:42;3.88;;;0.80;;
11439;SDS011;5776;51.814;4.510;2023-08-30T15:26:07;5.00;;;0.80;;
11439;SDS011;5776;51.814;4.510;2023-08-30T15:28:33;4.10;;;1.48;;
11439;SDS011;5776;51.814;4.510;2023-08-30T15:30:59;2.38;;;0.70;;
11439;SDS011;5776;51.814;4.510;2023-08-30T15:33:26;5.45;;;1.00;;
11439;SDS011;5776;51.814;4.510;2023-08-30T15:35:57;2.55;;;1.00;;
11439;SDS011;5776;51.814;4.510;2023-08-30T15:38:23;4.72;;;1.10;;
11439;SDS011;5776;51.814;4.510;2023-08-30T15:40:53;4.07;;;1.02;;